Strona główna
METAR-TAF:

METAR-TAF

Lotnisko :

Port lotniczy Ateny

Ateny, Grecja

Szerokość geograficzna: 37-56N, Długość geograficzna: 023-56E, wysokość: 94 m

Aktualna obserwacja pogody

Raport powstał 10 minut temu, godzina 16:20 UTC
Wiatr 6 kt od północno-północny wschód
Temperatura 25°C
Wilgotność 47%
Ciśnienie 1018 hPa
Widzialność 10 km lub więcej
Brak chmur poniżej 1500 m i brak chmur cumulonimbus

METAR: LGAV 231620Z 03006KT CAVOK 25/13 Q1018 NOSIG

czas: 19:30 (16:30 UTC)

Prognoza

Raport powstał 5 godziny i 30 minut temu, godzina 11:00 UTC
Prognoza ważna od 23 godzina 12 UTC do 24 godzina 12 UTC
Wiatr 16 kt od północno-północny wschód
Widzialność 10 km lub więcej
Mało chmury na wysokości 2500 ft
Stopniowe zmiany
od 23 godzina 18 UTC do 23 godzina 20 UTC
Wiatr 5 kt z kierunków zmiennych

TAF: LGAV 231100Z 2312/2412 02016KT 9999 FEW025 BECMG 2318/2320 VRB05KT

Obserwacja i prognoza pogody dla ponad 4000 lotnisk (raport METAR i TAF).

Dostępne stacje oznaczono żółtymi i czerwonymi punktami na mapie.

Najedź kursorem aby zobaczyć nazwę stacji.

Kliknij aby zobaczyć obserwacje i prognozy pogody.

Aby zmienić mapę: kliknij na zielony przycisk z czarnym krzyżykiem, aby powiększyć; na zielony przycisk z myślnikiem, aby pomniejszyć; na zielone strzałki, aby przejść do map sąsiednich.


METAR-TAF: